RAF Lossiemouth

EGQS · Escocia, Reino Unido

METAR pasados EGQS · RAF Lossiemouth

A continuación puedes ver los METAR de los últimos días. Selecciona un año para ver los METAR más antiguos, desde el año 2007 en adelante.

4 de diciembre de 2022

Hora Código Tiempo Temp. Visibilidad Cielo nuboso Viento METAR/SPECI
14:50
V
5 °C 10 km+ - 110° 110° 9 kt METAR EGQS 041450Z 11009KT 9999 FEW018 05/03 Q1029 TEMPO SCT018 RMK BLU TEMPO WHT
13:50
V
6 °C 10 km+ 5.500 ft 110° 110° 7 kt METAR EGQS 041350Z 11007KT 9999 FEW018 BKN055 06/03 Q1029 TEMPO SCT018 RMK BLU TEMPO WHT
13:20
V
6 °C 10 km+ 6.000 ft 100° 100° 8 kt METAR EGQS 041320Z 10008KT 9999 FEW018 BKN060 06/03 Q1029 TEMPO SCT018 RMK BLU TEMPO WHT
12:50
V
6 °C 10 km+ 6.000 ft 110° 110° 7 kt METAR EGQS 041250Z 11007KT 9999 FEW023 SCT038 BKN060 06/03 Q1029 TEMPO SCT023 RMK BLU TEMPO WHT
12:20
V
6 °C 10 km+ 3.700 ft 120° 120° 6 kt METAR EGQS 041220Z 12006KT 9999 -SHRA FEW017 BKN037 06/03 Q1029 TEMPO SCT017 RMK BLU TEMPO WHT
11:50
V
6 °C 10 km+ - 160° 160° 4 kt METAR EGQS 041150Z 16004KT 9999 FEW017 SCT035 06/03 Q1029 TEMPO SCT017 RMK BLU
11:20
V
5 °C 10 km+ - 090° 090° 5 kt METAR EGQS 041120Z 09005KT 9999 FEW024 SCT056 05/04 Q1029 TEMPO SCT017 RMK BLU TEMPO WHT
10:59
V
3 °C 10 km+ - 130° 130° 3 kt METAR EGQS 041059Z 13003KT 9999 -SHRA SCT017 SCT037 03/02 Q1029 TEMPO FEW017 RMK WHT TEMPO BLU
10:50
V
2 °C 10 km+ - 140° 140° 4 kt METAR EGQS 041050Z 14004KT 9999 FEW024 SCT037 02/01 Q1029 TEMPO 7000 SCT024 RMK BLU TEMPO WHT
10:20
V
2 °C 10 km+ 6.000 ft 140° 140° 4 kt METAR EGQS 041020Z 14004KT 9999 FEW024 BKN060 02/01 Q1029 TEMPO SCT024 RMK BLU TEMPO WHT
10:00
V
1 °C 10 km+ - 130° 130° 2 kt METAR EGQS 041000Z 13002KT 9999 FEW024 SCT052 01/01 Q1029 TEMPO SCT024 RMK BLU TEMPO WHT
09:50
V
2 °C 10 km+ 3.700 ft 160° 160° 2 kt METAR EGQS 040950Z 16002KT 9999 FEW021 SCT024 BKN037 02/01 Q1029 TEMPO FEW024 RMK WHT TEMPO BLU
09:36
V
1 °C 10 km+ 3.700 ft 150° 150° 4 kt METAR EGQS 040936Z 15004KT 9999 FEW021 SCT024 BKN037 01/01 Q1029 TEMPO FEW024 RMK WHT TEMPO BLU
09:20
V
1 °C 10 km+ 3.700 ft 090° 090° 4 kt METAR EGQS 040920Z 09004KT 9999 FEW021 BKN037 01/01 Q1029 RESHRA TEMPO SCT021 RMK BLU TEMPO WHT
09:04
M
-1 °C 10 km+ 2.100 ft 150° 150° 5 kt SPECI EGQS 040904Z 15005KT 9999 -RA BKN021 M01/M01 Q1029 TEMPO 7000 SHRA RMK WHT TEMPO WHT
08:50
V
-2 °C 10 km+ - 160° 160° 3 kt METAR EGQS 040850Z 16003KT 9999 FEW032 M02/M02 Q1029 TEMPO 7000 SHRA SCT024 RMK BLU TEMPO WHT
08:20
V
0 °C 10 km+ 3.000 ft 080° 080° 3 kt METAR EGQS 040820Z 08003KT 9999 FEW024 BKN030 M00/M01 Q1029 TEMPO 7000 SHRA SCT024 RMK BLU TEMPO WHT
07:50
V
-2 °C 10 km+ - 170° 170° 1 kt METAR EGQS 040750Z 17001KT 9999 MIFG FEW040 M02/M02 Q1028 TEMPO 7000 BR RMK BLU TEMPO WHT
07:20
V
-2 °C 10 km+ - Var 000° 0 kt METAR EGQS 040720Z 00000KT 9999 7000W FEW040 M02/M02 Q1028 TEMPO 9999 NOSIG RMK WHT TEMPO BLU
06:50
M
-2 °C 7 km - 190° 190° 3 kt METAR EGQS 040650Z 19003KT 7000 BR MIFG FEW053 M02/M02 Q1028 BECMG 9999 NSW RMK WHT BECMG BLU
06:20
M
-2 °C 5 km - 190° 190° 3 kt METAR EGQS 040620Z 19003KT 5000 BR MIFG FEW050 M02/M02 Q1028 TEMPO 0500 FZFG RMK WHT TEMPO RED
05:50
V
-2 °C 10 km+ - 220° 220° 1 kt METAR EGQS 040550Z 22001KT 9999 MIFG FEW045 M02/M02 Q1028 NOSIG RMK BLU BLU
04:50
V
-1 °C 10 km+ - 110° 110° 3 kt METAR EGQS 040450Z 11003KT 9999 MIFG FEW042 M01/M02 Q1028 NOSIG RMK BLU BLU
04:20
V
-1 °C 10 km+ - 110° 110° 2 kt METAR EGQS 040420Z 11002KT 9999 MIFG FEW050 M01/M02 Q1028 NOSIG RMK BLU BLU
03:50
V
-1 °C 10 km+ - 130° 130° 3 kt METAR EGQS 040350Z 13003KT 9999 MIFG FEW049 M01/M01 Q1028 NOSIG RMK BLU BLU
02:50
V
2 °C 10 km+ - 100° 100° 3 kt METAR EGQS 040250Z 10003KT 9999 FEW040 SCT180 02/01 Q1027 NOSIG RMK BLU BLU
01:50
V
1 °C 10 km+ 18.000 ft 120° 120° 3 kt METAR EGQS 040150Z 12003KT 9999 FEW036 BKN180 01/00 Q1027 NOSIG RMK BLU BLU
01:20
V
1 °C 10 km+ 18.000 ft 180° 180° 1 kt METAR EGQS 040120Z 18001KT 9999 VCSH FEW032 SCT046 BKN180 01/M00 Q1027 TEMPO SCT020 RMK BLU TEMPO WHT
00:50
V
1 °C 10 km+ 6.000 ft 140° 140° 4 kt METAR EGQS 040050Z 14004KT 9999 FEW022 SCT031 BKN060 01/M00 Q1027 TEMPO SCT020 RMK BLU TEMPO WHT

3 de diciembre de 2022

Hora Código Tiempo Temp. Visibilidad Cielo nuboso Viento METAR/SPECI
23:50
V
2 °C 10 km+ - 120° 120° 5 kt METAR EGQS 032350Z 12005KT CAVOK 02/01 Q1027 NOSIG RMK BLU BLU
22:50
V
3 °C 10 km+ - 100° 100° 6 kt METAR EGQS 032250Z 10006KT CAVOK 03/01 Q1027 NOSIG RMK BLU BLU
21:50
V
4 °C 10 km+ - 110° 110° 6 kt METAR EGQS 032150Z 11006KT CAVOK 04/01 Q1027 NOSIG RMK BLU BLU
21:20
V
4 °C 10 km+ - 120° 120° 5 kt METAR EGQS 032120Z 12005KT CAVOK 04/02 Q1026 NOSIG RMK BLU BLU
20:50
V
4 °C 10 km+ - 110° 110° 4 kt METAR EGQS 032050Z 11004KT CAVOK 04/02 Q1026 NOSIG RMK BLU BLU
20:20
V
5 °C 10 km+ - 130° 130° 5 kt METAR EGQS 032020Z 13005KT CAVOK 05/02 Q1026 NOSIG RMK BLU BLU
19:50
V
5 °C 10 km+ - 090° 090° 4 kt METAR EGQS 031950Z 09004KT CAVOK 05/02 Q1026 NOSIG RMK BLU BLU
19:20
V
5 °C 10 km+ - 110° 110° 6 kt METAR EGQS 031920Z 11006KT CAVOK 05/02 Q1026 NOSIG RMK BLU BLU
18:50
V
6 °C 10 km+ - 110° 110° 7 kt METAR EGQS 031850Z 11007KT CAVOK 06/03 Q1026 NOSIG RMK BLU BLU
18:20
V
6 °C 10 km+ - 110° 110° 6 kt METAR EGQS 031820Z 11006KT CAVOK 06/02 Q1026 NOSIG RMK BLU BLU
17:50
V
5 °C 10 km+ - 110° 110° 6 kt METAR EGQS 031750Z 11006KT CAVOK 05/02 Q1026 NOSIG RMK BLU BLU
17:20
V
6 °C 10 km+ - 140° 140° 8 kt METAR EGQS 031720Z 14008KT CAVOK 06/02 Q1026 NOSIG RMK BLU BLU
16:50
V
6 °C 10 km+ - 130° 130° 8 kt METAR EGQS 031650Z 13008KT CAVOK 06/02 Q1026 NOSIG RMK BLU BLU
16:20
V
6 °C 10 km+ 14.000 ft 140° 140° 5 kt METAR EGQS 031620Z 14005KT 9999 FEW025 SCT050 BKN140 06/03 Q1026 NOSIG RMK BLU BLU
15:50
V
6 °C 10 km+ 11.000 ft 160° 160° 8 kt METAR EGQS 031550Z 16008KT 9999 FEW025 SCT050 BKN110 06/03 Q1026 NOSIG RMK BLU BLU
15:20
V
7 °C 10 km+ 11.000 ft 140° 140° 9 kt METAR EGQS 031520Z 14009KT 9999 FEW025 BKN110 07/03 Q1026 NOSIG RMK BLU BLU
14:50
V
7 °C 10 km+ 9.900 ft 140° 140° 8 kt METAR EGQS 031450Z AUTO 14008KT 9999 OVC099/// 07/04 Q1026
14:20
V
7 °C 10 km+ 11.000 ft 140° 140° 8 kt METAR EGQS 031420Z 14008KT 9999 FEW025 SCT090 BKN110 07/04 Q1026 NOSIG RMK BLU BLU
13:50
V
7 °C 10 km+ 11.000 ft 140° 140° 9 kt METAR EGQS 031350Z 14009KT 9999 FEW025 SCT080 BKN110 07/04 Q1026 NOSIG RMK BLU BLU
13:20
V
7 °C 10 km+ 9.000 ft 140° 140° 7 kt METAR EGQS 031320Z 14007KT 9999 FEW025 BKN090 BKN120 07/04 Q1026 NOSIG RMK BLU BLU
12:50
V
7 °C 10 km+ 9.000 ft 150° 150° 6 kt METAR EGQS 031250Z 15006KT 9999 FEW025 BKN090 07/04 Q1026 NOSIG RMK BLU BLU
12:20
V
7 °C 10 km+ - 140° 140° 9 kt METAR EGQS 031220Z 14009KT 9999 FEW024 07/04 Q1027 NOSIG RMK BLU BLU
11:50
V
7 °C 10 km+ 9.000 ft 140° 140° 8 kt METAR EGQS 031150Z 14008KT 9999 FEW022 BKN090 07/04 Q1027 NOSIG RMK BLU BLU
11:20
V
7 °C 10 km+ 9.000 ft 150° 150° 5 kt METAR EGQS 031120Z 15005KT 9999 FEW022 BKN090 07/04 Q1027 NOSIG RMK BLU BLU
10:50
V
7 °C 10 km+ 7.000 ft 150° 150° 6 kt METAR EGQS 031050Z 15006KT 9999 FEW024 BKN070 07/04 Q1027 NOSIG RMK BLU BLU
10:20
V
6 °C 10 km+ 8.000 ft 150° 150° 6 kt METAR EGQS 031020Z 15006KT 9999 VCSH FEW024 BKN080 06/04 Q1028 NOSIG RMK BLU BLU
09:50
V
6 °C 10 km+ 5.000 ft 150° 150° 2 kt METAR EGQS 030950Z 15002KT 9999 VCSH FEW024 SCT034 BKN050 06/04 Q1028 NOSIG RMK BLU BLU
08:50
V
6 °C 10 km+ 5.200 ft 140° 140° 5 kt METAR EGQS 030850Z 14005KT 9999 -RA FEW030 SCT040 BKN052 06/04 Q1028 NOSIG RMK BLU BLU
07:50
V
6 °C 10 km+ 3.600 ft 140° 140° 6 kt METAR EGQS 030750Z 14006KT 9999 -RA BKN036 06/04 Q1028 NOSIG RMK BLU BLU
07:20
V
7 °C 10 km+ 3.300 ft 170° 170° 4 kt METAR EGQS 030720Z 17004KT 9999 -RA BKN033 07/04 Q1028 NOSIG RMK BLU BLU
06:50
V
7 °C 10 km+ 3.000 ft 150° 150° 6 kt METAR EGQS 030650Z 15006KT 9999 OVC030 07/04 Q1028 RMK BLU
05:50
V
7 °C 10 km+ 3.400 ft 180° 180° 2 kt METAR EGQS 030550Z 18002KT 9999 OVC034 07/04 Q1028 RMK BLU
04:50
V
7 °C 10 km+ 3.200 ft 180° 180° 7 kt METAR EGQS 030450Z 18007KT 9999 OVC032 07/04 Q1029 RMK BLU
03:50
V
7 °C 10 km+ 3.300 ft 150° 150° 6 kt METAR EGQS 030350Z 15006KT 9999 OVC033 07/05 Q1029 RMK BLU
02:50
V
7 °C 10 km+ 3.500 ft 160° 160° 5 kt METAR EGQS 030250Z 16005KT 9999 BKN035 07/05 Q1030 RMK BLU
01:50
V
8 °C 10 km+ 3.600 ft 160° 160° 6 kt METAR EGQS 030150Z 16006KT 9999 BKN036 08/05 Q1030 RMK BLU
00:50
V
7 °C 10 km+ 4.000 ft 170° 170° 6 kt METAR EGQS 030050Z 17006KT 9999 BKN040 07/05 Q1030 RMK BLU

2 de diciembre de 2022

Hora Código Tiempo Temp. Visibilidad Cielo nuboso Viento METAR/SPECI
23:50
V
8 °C 10 km+ 3.600 ft 210° 210° 4 kt METAR EGQS 022350Z 21004KT 9999 BKN036 08/05 Q1030 RMK BLU
22:50
V
8 °C 10 km+ 4.000 ft 160° 160° 6 kt METAR EGQS 022250Z 16006KT 9999 BKN040 08/05 Q1030 RMK BLU
21:50
V
8 °C 10 km+ 4.500 ft 150° 150° 8 kt METAR EGQS 022150Z 15008KT 9999 BKN045 08/05 Q1030 RMK BLU
20:50
V
8 °C 10 km+ 11.000 ft 150° 150° 10 kt METAR EGQS 022050Z 15010KT 9999 FEW045 SCT060 BKN110 08/05 Q1030 RMK BLU
20:20
V
8 °C 10 km+ 12.000 ft 150° 150° 10 kt METAR EGQS 022020Z 15010KT 9999 FEW040 SCT060 BKN120 08/05 Q1030 RMK BLU
19:50
V
7 °C 10 km+ 12.000 ft 150° 150° 8 kt METAR EGQS 021950Z 15008KT 9999 FEW040 SCT060 BKN120 07/05 Q1030 RMK BLU
19:20
V
8 °C 10 km+ 12.000 ft 150° 150° 8 kt METAR EGQS 021920Z 15008KT 9999 FEW040 BKN120 08/06 Q1029 RMK BLU
18:50
V
7 °C 10 km+ 12.000 ft 150° 150° 7 kt METAR EGQS 021850Z 15007KT 9999 FEW025 BKN120 07/06 Q1029 NOSIG RMK BLU BLU
18:20
V
8 °C 10 km+ 14.000 ft 150° 150° 8 kt METAR EGQS 021820Z 15008KT 9999 FEW025 BKN140 08/05 Q1029 NOSIG RMK BLU BLU
17:50
V
7 °C 10 km+ 13.000 ft 160° 160° 5 kt METAR EGQS 021750Z 16005KT 9999 FEW025 BKN130 07/06 Q1029 NOSIG RMK BLU BLU
17:20
V
8 °C 10 km+ 13.000 ft 150° 150° 7 kt METAR EGQS 021720Z 15007KT 9999 FEW025 BKN130 08/06 Q1029 NOSIG RMK BLU BLU
16:50
V
8 °C 10 km+ 14.000 ft 150° 150° 7 kt METAR EGQS 021650Z 15007KT 9999 FEW025 BKN140 08/06 Q1029 NOSIG RMK BLU BLU
16:20
V
8 °C 10 km+ 11.000 ft 150° 150° 8 kt METAR EGQS 021620Z 15008KT 9999 FEW025 BKN110 08/06 Q1028 NOSIG RMK BLU BLU
15:50
V
8 °C 10 km+ 14.000 ft 150° 150° 10 kt METAR EGQS 021550Z 15010KT 9999 FEW025 BKN140 08/06 Q1028 NOSIG RMK BLU BLU
15:20
V
8 °C 10 km+ 13.000 ft 150° 150° 9 kt METAR EGQS 021520Z 15009KT 9999 FEW024 BKN130 08/06 Q1028 NOSIG RMK BLU BLU
14:50
V
9 °C 10 km+ 11.000 ft 150° 150° 9 kt METAR EGQS 021450Z 15009KT 9999 FEW024 BKN110 09/07 Q1028 NOSIG RMK BLU BLU
14:20
V
9 °C 10 km+ 11.000 ft 150° 150° 8 kt METAR EGQS 021420Z 15008KT 9999 FEW025 BKN110 09/07 Q1027 NOSIG RMK BLU BLU
13:50
V
9 °C 10 km+ 15.000 ft 160° 160° 7 kt METAR EGQS 021350Z 16007KT 9999 FEW049 BKN150 09/07 Q1027 NOSIG RMK BLU BLU
13:20
V
9 °C 10 km+ - 150° 150° 7 kt METAR EGQS 021320Z 15007KT CAVOK 09/07 Q1027 NOSIG RMK BLU BLU
12:50
V
9 °C 10 km+ 13.000 ft 150° 150° 8 kt METAR EGQS 021250Z 15008KT 9999 FEW026 SCT048 BKN130 09/07 Q1027 NOSIG RMK BLU BLU
12:20
V
9 °C 10 km+ 4.800 ft 160° 160° 6 kt METAR EGQS 021220Z 16006KT 9999 FEW026 BKN048 BKN130 09/06 Q1027 NOSIG RMK BLU BLU
11:50
V
9 °C 10 km+ 5.500 ft 170° 170° 7 kt METAR EGQS 021150Z 17007KT 9999 FEW026 BKN055 BKN130 09/06 Q1027 NOSIG RMK BLU BLU
11:20
V
9 °C 10 km+ 4.800 ft 160° 160° 7 kt METAR EGQS 021120Z 16007KT 9999 FEW026 BKN048 BKN130 09/06 Q1027 NOSIG RMK BLU BLU
10:50
V
8 °C 10 km+ 4.600 ft 170° 170° 4 kt METAR EGQS 021050Z 17004KT 9999 FEW026 BKN046 08/06 Q1027 NOSIG RMK BLU BLU
10:20
V
8 °C 10 km+ 4.500 ft 160° 160° 6 kt METAR EGQS 021020Z 16006KT 9999 FEW026 BKN045 08/06 Q1027 NOSIG RMK BLU BLU
09:50
V
8 °C 10 km+ 4.100 ft 150° 150° 5 kt METAR EGQS 020950Z 15005KT 9999 FEW026 BKN041 08/06 Q1026 NOSIG RMK BLU BLU

Nosotros y terceros seguimos tu comportamiento en Internet en nuestro sitio web con cookies. Si continúas, asumimos que estás de acuerdo con nuestra Política de cookies.